sensor_id;sensor_type;location;lat;lon;timestamp;P1;durP1;ratioP1;P2;durP2;ratioP2
65370;SDS011;58485;59.934;30.352;2022-08-30T00:00:24;2.20;;;2.10;;
65370;SDS011;58485;59.934;30.352;2022-08-30T00:01:34;2.08;;;1.98;;
65370;SDS011;58485;59.934;30.352;2022-08-30T00:02:25;2.60;;;2.40;;
65370;SDS011;58485;59.934;30.352;2022-08-30T00:03:18;2.33;;;2.13;;
65370;SDS011;58485;59.934;30.352;2022-08-30T00:04:11;2.85;;;2.33;;
65370;SDS011;58485;59.934;30.352;2022-08-30T00:05:03;3.03;;;2.17;;
65370;SDS011;58485;59.934;30.352;2022-08-30T00:05:55;2.10;;;2.00;;
65370;SDS011;58485;59.934;30.352;2022-08-30T00:06:47;2.90;;;2.53;;
65370;SDS011;58485;59.934;30.352;2022-08-30T00:07:39;2.20;;;2.00;;
65370;SDS011;58485;59.934;30.352;2022-08-30T00:08:31;2.10;;;1.98;;
65370;SDS011;58485;59.934;30.352;2022-08-30T00:09:22;2.28;;;2.08;;
65370;SDS011;58485;59.934;30.352;2022-08-30T00:10:15;1.92;;;1.80;;
65370;SDS011;58485;59.934;30.352;2022-08-30T00:11:07;2.20;;;2.00;;
65370;SDS011;58485;59.934;30.352;2022-08-30T00:12:03;4.30;;;2.15;;
65370;SDS011;58485;59.934;30.352;2022-08-30T00:12:56;2.00;;;1.90;;
65370;SDS011;58485;59.934;30.352;2022-08-30T00:13:49;2.08;;;1.98;;
65370;SDS011;58485;59.934;30.352;2022-08-30T00:14:42;1.98;;;1.88;;
65370;SDS011;58485;59.934;30.352;2022-08-30T00:15:34;2.25;;;2.13;;
65370;SDS011;58485;59.934;30.352;2022-08-30T00:16:25;2.33;;;2.10;;
65370;SDS011;58485;59.934;30.352;2022-08-30T00:17:17;2.22;;;2.13;;
65370;SDS011;58485;59.934;30.352;2022-08-30T00:18:09;2.10;;;2.00;;
65370;SDS011;58485;59.934;30.352;2022-08-30T00:19:01;2.00;;;1.83;;
65370;SDS011;58485;59.934;30.352;2022-08-30T00:19:52;3.72;;;2.05;;
65370;SDS011;58485;59.934;30.352;2022-08-30T00:20:45;1.60;;;1.55;;
65370;SDS011;58485;59.934;30.352;2022-08-30T00:21:37;2.00;;;1.90;;
65370;SDS011;58485;59.934;30.352;2022-08-30T00:22:30;2.08;;;1.98;;
65370;SDS011;58485;59.934;30.352;2022-08-30T00:23:22;1.63;;;1.55;;
65370;SDS011;58485;59.934;30.352;2022-08-30T00:24:14;2.00;;;1.90;;
65370;SDS011;58485;59.934;30.352;2022-08-30T00:25:06;3.00;;;1.73;;
65370;SDS011;58485;59.934;30.352;2022-08-30T00:25:59;1.75;;;1.65;;
65370;SDS011;58485;59.934;30.352;2022-08-30T00:26:51;2.13;;;1.92;;
65370;SDS011;58485;59.934;30.352;2022-08-30T00:27:44;2.13;;;1.92;;
65370;SDS011;58485;59.934;30.352;2022-08-30T00:28:36;2.00;;;1.70;;
65370;SDS011;58485;59.934;30.352;2022-08-30T00:29:29;1.92;;;1.83;;
65370;SDS011;58485;59.934;30.352;2022-08-30T00:30:20;1.80;;;1.70;;
65370;SDS011;58485;59.934;30.352;2022-08-30T00:31:13;1.73;;;1.60;;
65370;SDS011;58485;59.934;30.352;2022-08-30T00:32:04;1.80;;;1.70;;
65370;SDS011;58485;59.934;30.352;2022-08-30T00:32:56;3.13;;;2.10;;
65370;SDS011;58485;59.934;30.352;2022-08-30T00:33:48;1.80;;;1.70;;
65370;SDS011;58485;59.934;30.352;2022-08-30T00:34:40;2.05;;;1.95;;
65370;SDS011;58485;59.934;30.352;2022-08-30T00:35:31;1.67;;;1.33;;
65370;SDS011;58485;59.934;30.352;2022-08-30T00:36:24;1.75;;;1.65;;
65370;SDS011;58485;59.934;30.352;2022-08-30T00:37:15;1.60;;;1.50;;
65370;SDS011;58485;59.934;30.352;2022-08-30T00:38:08;1.70;;;1.60;;
65370;SDS011;58485;59.934;30.352;2022-08-30T00:39:02;1.98;;;1.88;;
65370;SDS011;58485;59.934;30.352;2022-08-30T00:39:55;1.63;;;1.52;;
65370;SDS011;58485;59.934;30.352;2022-08-30T00:40:46;2.53;;;1.80;;
65370;SDS011;58485;59.934;30.352;2022-08-30T00:41:39;1.58;;;1.48;;
65370;SDS011;58485;59.934;30.352;2022-08-30T00:42:31;1.60;;;1.50;;
65370;SDS011;58485;59.934;30.352;2022-08-30T00:43:25;1.80;;;1.70;;
65370;SDS011;58485;59.934;30.352;2022-08-30T00:44:21;1.80;;;1.70;;
65370;SDS011;58485;59.934;30.352;2022-08-30T00:45:15;1.60;;;1.50;;
65370;SDS011;58485;59.934;30.352;2022-08-30T00:46:10;1.77;;;1.65;;
65370;SDS011;58485;59.934;30.352;2022-08-30T00:47:02;1.80;;;1.70;;
65370;SDS011;58485;59.934;30.352;2022-08-30T00:47:54;1.60;;;1.50;;
65370;SDS011;58485;59.934;30.352;2022-08-30T00:48:47;1.95;;;1.80;;
65370;SDS011;58485;59.934;30.352;2022-08-30T00:49:40;1.65;;;1.52;;
65370;SDS011;58485;59.934;30.352;2022-08-30T00:50:37;1.52;;;1.42;;
65370;SDS011;58485;59.934;30.352;2022-08-30T00:51:32;1.60;;;1.50;;
65370;SDS011;58485;59.934;30.352;2022-08-30T00:52:26;2.30;;;1.45;;
65370;SDS011;58485;59.934;30.352;2022-08-30T00:53:18;1.40;;;1.30;;
65370;SDS011;58485;59.934;30.352;2022-08-30T00:54:13;1.80;;;1.70;;
65370;SDS011;58485;59.934;30.352;2022-08-30T00:55:05;1.63;;;1.52;;
65370;SDS011;58485;59.934;30.352;2022-08-30T00:55:59;1.35;;;1.20;;
65370;SDS011;58485;59.934;30.352;2022-08-30T00:56:52;1.45;;;1.35;;
65370;SDS011;58485;59.934;30.352;2022-08-30T00:57:45;1.90;;;1.63;;
65370;SDS011;58485;59.934;30.352;2022-08-30T00:58:39;1.42;;;1.33;;
65370;SDS011;58485;59.934;30.352;2022-08-30T00:59:37;1.50;;;1.40;;
65370;SDS011;58485;59.934;30.352;2022-08-30T01:00:28;4.00;;;1.40;;
65370;SDS011;58485;59.934;30.352;2022-08-30T01:01:21;1.27;;;1.27;;
65370;SDS011;58485;59.934;30.352;2022-08-30T01:02:13;1.52;;;1.42;;
65370;SDS011;58485;59.934;30.352;2022-08-30T01:03:06;6.00;;;1.48;;
65370;SDS011;58485;59.934;30.352;2022-08-30T01:03:58;1.60;;;1.48;;
65370;SDS011;58485;59.934;30.352;2022-08-30T01:04:51;1.35;;;1.25;;
65370;SDS011;58485;59.934;30.352;2022-08-30T01:05:45;1.20;;;1.10;;
65370;SDS011;58485;59.934;30.352;2022-08-30T01:06:39;1.20;;;1.20;;
65370;SDS011;58485;59.934;30.352;2022-08-30T01:07:31;1.50;;;1.40;;
65370;SDS011;58485;59.934;30.352;2022-08-30T01:08:24;2.08;;;1.40;;
65370;SDS011;58485;59.934;30.352;2022-08-30T01:09:16;1.48;;;1.30;;
65370;SDS011;58485;59.934;30.352;2022-08-30T01:10:09;1.75;;;1.30;;
65370;SDS011;58485;59.934;30.352;2022-08-30T01:11:03;0.90;;;0.90;;
65370;SDS011;58485;59.934;30.352;2022-08-30T01:11:56;1.60;;;1.50;;
65370;SDS011;58485;59.934;30.352;2022-08-30T01:12:47;1.80;;;1.70;;
65370;SDS011;58485;59.934;30.352;2022-08-30T01:13:39;1.25;;;1.15;;
65370;SDS011;58485;59.934;30.352;2022-08-30T01:14:31;1.48;;;1.38;;
65370;SDS011;58485;59.934;30.352;2022-08-30T01:15:25;1.58;;;1.48;;
65370;SDS011;58485;59.934;30.352;2022-08-30T01:16:17;4.25;;;1.27;;
65370;SDS011;58485;59.934;30.352;2022-08-30T01:17:09;1.30;;;1.20;;
65370;SDS011;58485;59.934;30.352;2022-08-30T01:18:01;1.70;;;1.25;;
65370;SDS011;58485;59.934;30.352;2022-08-30T01:18:55;1.60;;;1.50;;
65370;SDS011;58485;59.934;30.352;2022-08-30T01:19:48;1.30;;;1.20;;
65370;SDS011;58485;59.934;30.352;2022-08-30T01:20:46;1.83;;;1.70;;
65370;SDS011;58485;59.934;30.352;2022-08-30T01:21:45;1.48;;;1.40;;
65370;SDS011;58485;59.934;30.352;2022-08-30T01:22:42;1.65;;;1.50;;
65370;SDS011;58485;59.934;30.352;2022-08-30T01:23:50;1.63;;;1.38;;
65370;SDS011;58485;59.934;30.352;2022-08-30T01:24:45;1.30;;;1.10;;
65370;SDS011;58485;59.934;30.352;2022-08-30T01:25:38;1.45;;;1.35;;
65370;SDS011;58485;59.934;30.352;2022-08-30T01:26:33;1.98;;;1.30;;
65370;SDS011;58485;59.934;30.352;2022-08-30T01:27:27;1.25;;;1.15;;
65370;SDS011;58485;59.934;30.352;2022-08-30T01:28:22;1.20;;;1.10;;
65370;SDS011;58485;59.934;30.352;2022-08-30T01:29:16;1.40;;;1.27;;
65370;SDS011;58485;59.934;30.352;2022-08-30T01:30:12;2.72;;;1.13;;
65370;SDS011;58485;59.934;30.352;2022-08-30T01:31:03;1.40;;;1.08;;
65370;SDS011;58485;59.934;30.352;2022-08-30T01:31:56;1.30;;;1.20;;
65370;SDS011;58485;59.934;30.352;2022-08-30T01:32:47;1.45;;;1.35;;
65370;SDS011;58485;59.934;30.352;2022-08-30T01:33:41;1.45;;;1.35;;
65370;SDS011;58485;59.934;30.352;2022-08-30T01:34:32;1.77;;;1.58;;
65370;SDS011;58485;59.934;30.352;2022-08-30T01:35:25;1.50;;;1.40;;
65370;SDS011;58485;59.934;30.352;2022-08-30T01:36:17;1.10;;;0.98;;
65370;SDS011;58485;59.934;30.352;2022-08-30T01:37:11;1.17;;;1.08;;
65370;SDS011;58485;59.934;30.352;2022-08-30T01:38:03;1.15;;;1.15;;
65370;SDS011;58485;59.934;30.352;2022-08-30T01:38:56;1.20;;;1.10;;
65370;SDS011;58485;59.934;30.352;2022-08-30T01:39:48;1.25;;;1.00;;
65370;SDS011;58485;59.934;30.352;2022-08-30T01:40:40;1.60;;;1.50;;
65370;SDS011;58485;59.934;30.352;2022-08-30T01:41:32;2.03;;;1.15;;
65370;SDS011;58485;59.934;30.352;2022-08-30T01:42:26;1.25;;;1.15;;
65370;SDS011;58485;59.934;30.352;2022-08-30T01:43:17;1.30;;;1.20;;
65370;SDS011;58485;59.934;30.352;2022-08-30T01:44:10;1.42;;;1.27;;
65370;SDS011;58485;59.934;30.352;2022-08-30T01:45:04;1.25;;;1.15;;
65370;SDS011;58485;59.934;30.352;2022-08-30T01:45:58;1.17;;;1.15;;
65370;SDS011;58485;59.934;30.352;2022-08-30T01:46:51;1.08;;;1.00;;
65370;SDS011;58485;59.934;30.352;2022-08-30T01:47:43;1.30;;;1.20;;
65370;SDS011;58485;59.934;30.352;2022-08-30T01:48:35;1.23;;;1.13;;
65370;SDS011;58485;59.934;30.352;2022-08-30T01:49:28;1.13;;;1.10;;
65370;SDS011;58485;59.934;30.352;2022-08-30T01:50:19;1.20;;;1.10;;
65370;SDS011;58485;59.934;30.352;2022-08-30T01:51:12;0.98;;;0.98;;
65370;SDS011;58485;59.934;30.352;2022-08-30T01:52:04;1.33;;;1.20;;
65370;SDS011;58485;59.934;30.352;2022-08-30T01:52:57;1.00;;;0.90;;
65370;SDS011;58485;59.934;30.352;2022-08-30T01:53:50;1.30;;;1.20;;
65370;SDS011;58485;59.934;30.352;2022-08-30T01:54:43;3.25;;;1.08;;
65370;SDS011;58485;59.934;30.352;2022-08-30T01:55:35;1.00;;;1.00;;
65370;SDS011;58485;59.934;30.352;2022-08-30T01:56:28;0.90;;;0.90;;
65370;SDS011;58485;59.934;30.352;2022-08-30T01:57:20;1.25;;;1.15;;
65370;SDS011;58485;59.934;30.352;2022-08-30T01:58:16;0.98;;;0.75;;
65370;SDS011;58485;59.934;30.352;2022-08-30T01:59:07;0.90;;;0.90;;
65370;SDS011;58485;59.934;30.352;2022-08-30T02:00:00;1.08;;;1.08;;
65370;SDS011;58485;59.934;30.352;2022-08-30T02:00:51;1.10;;;1.10;;
65370;SDS011;58485;59.934;30.352;2022-08-30T02:01:43;1.00;;;0.95;;
65370;SDS011;58485;59.934;30.352;2022-08-30T02:02:35;1.20;;;1.10;;
65370;SDS011;58485;59.934;30.352;2022-08-30T02:03:27;1.10;;;1.00;;
65370;SDS011;58485;59.934;30.352;2022-08-30T02:04:22;0.98;;;0.98;;
65370;SDS011;58485;59.934;30.352;2022-08-30T02:05:16;1.27;;;1.20;;
65370;SDS011;58485;59.934;30.352;2022-08-30T02:06:08;0.88;;;0.77;;
65370;SDS011;58485;59.934;30.352;2022-08-30T02:07:03;1.00;;;1.00;;
65370;SDS011;58485;59.934;30.352;2022-08-30T02:07:55;1.00;;;1.00;;
65370;SDS011;58485;59.934;30.352;2022-08-30T02:08:47;1.30;;;1.10;;
65370;SDS011;58485;59.934;30.352;2022-08-30T02:09:40;0.90;;;0.90;;
65370;SDS011;58485;59.934;30.352;2022-08-30T02:10:32;0.90;;;0.90;;
65370;SDS011;58485;59.934;30.352;2022-08-30T02:11:24;1.20;;;1.10;;
65370;SDS011;58485;59.934;30.352;2022-08-30T02:12:17;0.93;;;0.93;;
65370;SDS011;58485;59.934;30.352;2022-08-30T02:13:08;1.00;;;0.98;;
65370;SDS011;58485;59.934;30.352;2022-08-30T02:14:01;1.15;;;1.08;;
65370;SDS011;58485;59.934;30.352;2022-08-30T02:14:53;0.98;;;0.98;;
65370;SDS011;58485;59.934;30.352;2022-08-30T02:15:45;0.90;;;0.90;;
65370;SDS011;58485;59.934;30.352;2022-08-30T02:16:36;1.23;;;1.13;;
65370;SDS011;58485;59.934;30.352;2022-08-30T02:17:28;0.68;;;0.68;;
65370;SDS011;58485;59.934;30.352;2022-08-30T02:18:20;0.90;;;0.90;;
65370;SDS011;58485;59.934;30.352;2022-08-30T02:19:13;5.13;;;1.02;;
65370;SDS011;58485;59.934;30.352;2022-08-30T02:20:05;1.00;;;1.00;;
65370;SDS011;58485;59.934;30.352;2022-08-30T02:20:58;0.63;;;0.63;;
65370;SDS011;58485;59.934;30.352;2022-08-30T02:21:50;0.95;;;0.95;;
65370;SDS011;58485;59.934;30.352;2022-08-30T02:22:42;0.93;;;0.93;;
65370;SDS011;58485;59.934;30.352;2022-08-30T02:23:33;1.08;;;0.95;;
65370;SDS011;58485;59.934;30.352;2022-08-30T02:24:28;1.23;;;0.90;;
65370;SDS011;58485;59.934;30.352;2022-08-30T02:25:19;1.10;;;0.90;;
65370;SDS011;58485;59.934;30.352;2022-08-30T02:26:12;0.88;;;0.88;;
65370;SDS011;58485;59.934;30.352;2022-08-30T02:27:04;0.80;;;0.80;;
65370;SDS011;58485;59.934;30.352;2022-08-30T02:27:56;0.88;;;0.88;;
65370;SDS011;58485;59.934;30.352;2022-08-30T02:28:48;0.90;;;0.90;;
65370;SDS011;58485;59.934;30.352;2022-08-30T02:29:40;0.95;;;0.95;;
65370;SDS011;58485;59.934;30.352;2022-08-30T02:30:32;1.40;;;0.70;;
65370;SDS011;58485;59.934;30.352;2022-08-30T02:31:24;0.77;;;0.77;;
65370;SDS011;58485;59.934;30.352;2022-08-30T02:32:16;1.10;;;1.10;;
65370;SDS011;58485;59.934;30.352;2022-08-30T02:33:08;0.75;;;0.75;;
65370;SDS011;58485;59.934;30.352;2022-08-30T02:33:59;0.85;;;0.80;;
65370;SDS011;58485;59.934;30.352;2022-08-30T02:34:53;0.70;;;0.70;;
65370;SDS011;58485;59.934;30.352;2022-08-30T02:35:44;0.77;;;0.77;;
65370;SDS011;58485;59.934;30.352;2022-08-30T02:36:37;1.05;;;0.95;;
65370;SDS011;58485;59.934;30.352;2022-08-30T02:37:30;0.90;;;0.90;;
65370;SDS011;58485;59.934;30.352;2022-08-30T02:38:22;0.95;;;0.95;;
65370;SDS011;58485;59.934;30.352;2022-08-30T02:39:13;1.90;;;0.90;;
65370;SDS011;58485;59.934;30.352;2022-08-30T02:40:08;0.80;;;0.80;;
65370;SDS011;58485;59.934;30.352;2022-08-30T02:41:00;0.90;;;0.90;;
65370;SDS011;58485;59.934;30.352;2022-08-30T02:41:53;0.90;;;0.90;;
65370;SDS011;58485;59.934;30.352;2022-08-30T02:42:44;0.90;;;0.90;;
65370;SDS011;58485;59.934;30.352;2022-08-30T02:43:36;0.70;;;0.70;;
65370;SDS011;58485;59.934;30.352;2022-08-30T02:44:27;0.60;;;0.60;;
65370;SDS011;58485;59.934;30.352;2022-08-30T02:45:19;0.70;;;0.70;;
65370;SDS011;58485;59.934;30.352;2022-08-30T02:46:11;0.80;;;0.80;;
65370;SDS011;58485;59.934;30.352;2022-08-30T02:47:03;1.02;;;1.02;;
65370;SDS011;58485;59.934;30.352;2022-08-30T02:47:55;0.60;;;0.60;;
65370;SDS011;58485;59.934;30.352;2022-08-30T02:48:47;0.95;;;0.85;;
65370;SDS011;58485;59.934;30.352;2022-08-30T02:49:38;0.85;;;0.75;;
65370;SDS011;58485;59.934;30.352;2022-08-30T02:50:30;0.77;;;0.70;;
65370;SDS011;58485;59.934;30.352;2022-08-30T02:51:22;0.63;;;0.63;;
65370;SDS011;58485;59.934;30.352;2022-08-30T02:52:15;0.80;;;0.80;;
65370;SDS011;58485;59.934;30.352;2022-08-30T02:53:06;0.73;;;0.73;;
65370;SDS011;58485;59.934;30.352;2022-08-30T02:53:58;0.68;;;0.68;;
65370;SDS011;58485;59.934;30.352;2022-08-30T02:54:49;2.38;;;0.85;;
65370;SDS011;58485;59.934;30.352;2022-08-30T02:55:43;0.52;;;0.52;;
65370;SDS011;58485;59.934;30.352;2022-08-30T02:56:34;0.70;;;0.60;;
65370;SDS011;58485;59.934;30.352;2022-08-30T02:57:26;0.65;;;0.60;;
65370;SDS011;58485;59.934;30.352;2022-08-30T02:58:18;0.60;;;0.60;;
65370;SDS011;58485;59.934;30.352;2022-08-30T02:59:10;0.95;;;0.73;;
65370;SDS011;58485;59.934;30.352;2022-08-30T03:00:01;0.73;;;0.70;;
65370;SDS011;58485;59.934;30.352;2022-08-30T03:00:56;0.50;;;0.50;;
65370;SDS011;58485;59.934;30.352;2022-08-30T03:01:47;0.77;;;0.77;;
65370;SDS011;58485;59.934;30.352;2022-08-30T03:02:39;0.43;;;0.43;;
65370;SDS011;58485;59.934;30.352;2022-08-30T03:03:31;0.60;;;0.60;;
65370;SDS011;58485;59.934;30.352;2022-08-30T03:04:24;0.98;;;0.70;;
65370;SDS011;58485;59.934;30.352;2022-08-30T03:05:15;0.57;;;0.57;;
65370;SDS011;58485;59.934;30.352;2022-08-30T03:06:09;0.60;;;0.60;;
65370;SDS011;58485;59.934;30.352;2022-08-30T03:07:00;0.65;;;0.63;;
65370;SDS011;58485;59.934;30.352;2022-08-30T03:07:52;0.60;;;0.60;;
65370;SDS011;58485;59.934;30.352;2022-08-30T03:08:43;0.73;;;0.73;;
65370;SDS011;58485;59.934;30.352;2022-08-30T03:09:35;0.70;;;0.70;;
65370;SDS011;58485;59.934;30.352;2022-08-30T03:10:27;0.60;;;0.60;;
65370;SDS011;58485;59.934;30.352;2022-08-30T03:11:21;1.65;;;0.77;;
65370;SDS011;58485;59.934;30.352;2022-08-30T03:12:12;0.55;;;0.55;;
65370;SDS011;58485;59.934;30.352;2022-08-30T03:13:05;0.90;;;0.70;;
65370;SDS011;58485;59.934;30.352;2022-08-30T03:13:56;0.70;;;0.70;;
65370;SDS011;58485;59.934;30.352;2022-08-30T03:14:49;0.73;;;0.73;;
65370;SDS011;58485;59.934;30.352;2022-08-30T03:15:41;0.70;;;0.70;;
65370;SDS011;58485;59.934;30.352;2022-08-30T03:16:33;0.77;;;0.50;;
65370;SDS011;58485;59.934;30.352;2022-08-30T03:17:25;1.30;;;0.70;;
65370;SDS011;58485;59.934;30.352;2022-08-30T03:18:17;0.47;;;0.47;;
65370;SDS011;58485;59.934;30.352;2022-08-30T03:19:10;0.60;;;0.60;;
65370;SDS011;58485;59.934;30.352;2022-08-30T03:20:02;0.50;;;0.50;;
65370;SDS011;58485;59.934;30.352;2022-08-30T03:20:55;0.40;;;0.40;;
65370;SDS011;58485;59.934;30.352;2022-08-30T03:21:47;0.70;;;0.70;;
65370;SDS011;58485;59.934;30.352;2022-08-30T03:22:39;0.65;;;0.60;;
65370;SDS011;58485;59.934;30.352;2022-08-30T03:23:31;1.10;;;0.75;;
65370;SDS011;58485;59.934;30.352;2022-08-30T03:24:23;0.70;;;0.70;;
65370;SDS011;58485;59.934;30.352;2022-08-30T03:25:15;0.80;;;0.70;;
65370;SDS011;58485;59.934;30.352;2022-08-30T03:26:07;0.80;;;0.75;;
65370;SDS011;58485;59.934;30.352;2022-08-30T03:27:03;0.65;;;0.65;;
65370;SDS011;58485;59.934;30.352;2022-08-30T03:27:54;0.70;;;0.70;;
65370;SDS011;58485;59.934;30.352;2022-08-30T03:28:47;0.75;;;0.70;;
65370;SDS011;58485;59.934;30.352;2022-08-30T03:29:38;0.80;;;0.70;;
65370;SDS011;58485;59.934;30.352;2022-08-30T03:30:30;0.88;;;0.70;;
65370;SDS011;58485;59.934;30.352;2022-08-30T03:31:22;1.05;;;0.70;;
65370;SDS011;58485;59.934;30.352;2022-08-30T03:32:14;0.80;;;0.80;;
65370;SDS011;58485;59.934;30.352;2022-08-30T03:33:05;0.65;;;0.65;;
65370;SDS011;58485;59.934;30.352;2022-08-30T03:33:57;1.15;;;0.70;;
65370;SDS011;58485;59.934;30.352;2022-08-30T03:34:49;0.60;;;0.60;;
65370;SDS011;58485;59.934;30.352;2022-08-30T03:35:40;0.60;;;0.60;;
65370;SDS011;58485;59.934;30.352;2022-08-30T03:36:32;0.60;;;0.60;;
65370;SDS011;58485;59.934;30.352;2022-08-30T03:37:25;1.75;;;0.70;;
65370;SDS011;58485;59.934;30.352;2022-08-30T03:38:16;0.55;;;0.55;;
65370;SDS011;58485;59.934;30.352;2022-08-30T03:39:09;1.15;;;0.70;;
65370;SDS011;58485;59.934;30.352;2022-08-30T03:40:00;0.70;;;0.57;;
65370;SDS011;58485;59.934;30.352;2022-08-30T03:40:54;0.77;;;0.77;;
65370;SDS011;58485;59.934;30.352;2022-08-30T03:41:45;0.50;;;0.50;;
65370;SDS011;58485;59.934;30.352;2022-08-30T03:42:39;1.98;;;0.50;;
65370;SDS011;58485;59.934;30.352;2022-08-30T03:43:30;0.52;;;0.50;;
65370;SDS011;58485;59.934;30.352;2022-08-30T03:44:23;1.60;;;0.60;;
65370;SDS011;58485;59.934;30.352;2022-08-30T03:45:15;0.60;;;0.60;;
65370;SDS011;58485;59.934;30.352;2022-08-30T03:46:09;0.50;;;0.50;;
65370;SDS011;58485;59.934;30.352;2022-08-30T03:47:00;0.63;;;0.60;;
65370;SDS011;58485;59.934;30.352;2022-08-30T03:47:53;0.70;;;0.50;;
65370;SDS011;58485;59.934;30.352;2022-08-30T03:48:44;0.80;;;0.65;;
65370;SDS011;58485;59.934;30.352;2022-08-30T03:49:36;0.75;;;0.70;;
65370;SDS011;58485;59.934;30.352;2022-08-30T03:50:28;0.63;;;0.63;;
65370;SDS011;58485;59.934;30.352;2022-08-30T03:51:21;4.10;;;0.60;;
65370;SDS011;58485;59.934;30.352;2022-08-30T03:52:12;0.60;;;0.60;;
65370;SDS011;58485;59.934;30.352;2022-08-30T03:53:04;0.85;;;0.60;;
65370;SDS011;58485;59.934;30.352;2022-08-30T03:53:55;0.68;;;0.68;;
65370;SDS011;58485;59.934;30.352;2022-08-30T03:54:48;1.60;;;0.60;;
65370;SDS011;58485;59.934;30.352;2022-08-30T03:55:39;0.63;;;0.60;;
65370;SDS011;58485;59.934;30.352;2022-08-30T03:56:31;1.48;;;0.60;;
65370;SDS011;58485;59.934;30.352;2022-08-30T03:57:22;0.40;;;0.40;;
65370;SDS011;58485;59.934;30.352;2022-08-30T03:58:16;1.40;;;0.50;;
65370;SDS011;58485;59.934;30.352;2022-08-30T03:59:07;0.60;;;0.60;;
65370;SDS011;58485;59.934;30.352;2022-08-30T04:00:00;0.60;;;0.60;;
65370;SDS011;58485;59.934;30.352;2022-08-30T04:00:51;0.63;;;0.63;;
65370;SDS011;58485;59.934;30.352;2022-08-30T04:01:43;0.90;;;0.63;;
65370;SDS011;58485;59.934;30.352;2022-08-30T04:02:34;0.50;;;0.50;;
65370;SDS011;58485;59.934;30.352;2022-08-30T04:03:27;0.70;;;0.60;;
65370;SDS011;58485;59.934;30.352;2022-08-30T04:04:18;0.60;;;0.60;;
65370;SDS011;58485;59.934;30.352;2022-08-30T04:05:10;0.55;;;0.55;;
65370;SDS011;58485;59.934;30.352;2022-08-30T04:06:02;0.50;;;0.50;;
65370;SDS011;58485;59.934;30.352;2022-08-30T04:06:55;0.50;;;0.50;;
65370;SDS011;58485;59.934;30.352;2022-08-30T04:07:46;0.70;;;0.70;;
65370;SDS011;58485;59.934;30.352;2022-08-30T04:08:39;0.57;;;0.55;;
65370;SDS011;58485;59.934;30.352;2022-08-30T04:09:30;0.60;;;0.60;;
65370;SDS011;58485;59.934;30.352;2022-08-30T04:10:22;0.63;;;0.63;;
65370;SDS011;58485;59.934;30.352;2022-08-30T04:11:13;0.50;;;0.50;;
65370;SDS011;58485;59.934;30.352;2022-08-30T04:12:06;0.50;;;0.50;;
65370;SDS011;58485;59.934;30.352;2022-08-30T04:12:57;0.82;;;0.75;;
65370;SDS011;58485;59.934;30.352;2022-08-30T04:13:51;1.20;;;0.60;;
65370;SDS011;58485;59.934;30.352;2022-08-30T04:14:45;0.50;;;0.50;;
65370;SDS011;58485;59.934;30.352;2022-08-30T04:15:37;0.75;;;0.60;;
65370;SDS011;58485;59.934;30.352;2022-08-30T04:16:28;0.70;;;0.60;;
65370;SDS011;58485;59.934;30.352;2022-08-30T04:17:20;0.60;;;0.60;;
65370;SDS011;58485;59.934;30.352;2022-08-30T04:18:11;0.47;;;0.47;;
65370;SDS011;58485;59.934;30.352;2022-08-30T04:19:03;0.50;;;0.50;;
65370;SDS011;58485;59.934;30.352;2022-08-30T04:19:55;0.50;;;0.50;;
65370;SDS011;58485;59.934;30.352;2022-08-30T04:20:47;0.55;;;0.55;;
65370;SDS011;58485;59.934;30.352;2022-08-30T04:21:40;0.60;;;0.60;;
65370;SDS011;58485;59.934;30.352;2022-08-30T04:22:32;0.50;;;0.50;;
65370;SDS011;58485;59.934;30.352;2022-08-30T04:23:24;0.93;;;0.47;;
65370;SDS011;58485;59.934;30.352;2022-08-30T04:24:17;0.80;;;0.68;;
65370;SDS011;58485;59.934;30.352;2022-08-30T04:25:09;0.70;;;0.70;;
65370;SDS011;58485;59.934;30.352;2022-08-30T04:26:02;0.50;;;0.50;;
65370;SDS011;58485;59.934;30.352;2022-08-30T04:26:53;0.98;;;0.73;;
65370;SDS011;58485;59.934;30.352;2022-08-30T04:27:45;0.45;;;0.45;;
65370;SDS011;58485;59.934;30.352;2022-08-30T04:28:37;0.40;;;0.40;;
65370;SDS011;58485;59.934;30.352;2022-08-30T04:29:31;0.75;;;0.60;;
65370;SDS011;58485;59.934;30.352;2022-08-30T04:30:22;1.95;;;0.50;;
65370;SDS011;58485;59.934;30.352;2022-08-30T04:31:15;0.80;;;0.60;;
65370;SDS011;58485;59.934;30.352;2022-08-30T04:32:08;2.78;;;0.50;;
65370;SDS011;58485;59.934;30.352;2022-08-30T04:33:00;3.22;;;0.80;;
65370;SDS011;58485;59.934;30.352;2022-08-30T04:33:51;0.43;;;0.43;;
65370;SDS011;58485;59.934;30.352;2022-08-30T04:34:43;0.50;;;0.50;;
65370;SDS011;58485;59.934;30.352;2022-08-30T04:35:35;0.70;;;0.50;;
65370;SDS011;58485;59.934;30.352;2022-08-30T04:36:27;0.60;;;0.60;;
65370;SDS011;58485;59.934;30.352;2022-08-30T04:37:18;0.75;;;0.50;;
65370;SDS011;58485;59.934;30.352;2022-08-30T04:38:11;0.40;;;0.40;;
65370;SDS011;58485;59.934;30.352;2022-08-30T04:39:03;0.50;;;0.50;;
65370;SDS011;58485;59.934;30.352;2022-08-30T04:39:55;0.50;;;0.50;;
65370;SDS011;58485;59.934;30.352;2022-08-30T04:40:46;0.50;;;0.50;;
65370;SDS011;58485;59.934;30.352;2022-08-30T04:41:39;0.70;;;0.70;;
65370;SDS011;58485;59.934;30.352;2022-08-30T04:42:32;0.73;;;0.68;;
65370;SDS011;58485;59.934;30.352;2022-08-30T04:43:24;0.77;;;0.50;;
65370;SDS011;58485;59.934;30.352;2022-08-30T04:44:17;0.57;;;0.55;;
65370;SDS011;58485;59.934;30.352;2022-08-30T04:45:11;0.70;;;0.45;;
65370;SDS011;58485;59.934;30.352;2022-08-30T04:46:06;0.47;;;0.47;;
65370;SDS011;58485;59.934;30.352;2022-08-30T04:46:58;0.60;;;0.60;;
65370;SDS011;58485;59.934;30.352;2022-08-30T04:47:51;0.50;;;0.50;;
65370;SDS011;58485;59.934;30.352;2022-08-30T04:48:43;0.40;;;0.40;;
65370;SDS011;58485;59.934;30.352;2022-08-30T04:49:36;0.50;;;0.50;;
65370;SDS011;58485;59.934;30.352;2022-08-30T04:50:27;0.50;;;0.50;;
65370;SDS011;58485;59.934;30.352;2022-08-30T04:51:20;0.57;;;0.45;;
65370;SDS011;58485;59.934;30.352;2022-08-30T04:52:11;0.60;;;0.50;;
65370;SDS011;58485;59.934;30.352;2022-08-30T04:53:03;0.50;;;0.50;;
65370;SDS011;58485;59.934;30.352;2022-08-30T04:53:54;2.15;;;0.52;;
65370;SDS011;58485;59.934;30.352;2022-08-30T04:54:47;0.47;;;0.47;;
65370;SDS011;58485;59.934;30.352;2022-08-30T04:55:43;0.80;;;0.60;;
65370;SDS011;58485;59.934;30.352;2022-08-30T04:56:35;0.50;;;0.50;;
65370;SDS011;58485;59.934;30.352;2022-08-30T04:57:27;0.50;;;0.50;;
65370;SDS011;58485;59.934;30.352;2022-08-30T04:58:20;0.85;;;0.70;;
65370;SDS011;58485;59.934;30.352;2022-08-30T04:59:11;0.50;;;0.50;;
65370;SDS011;58485;59.934;30.352;2022-08-30T05:00:05;1.10;;;0.60;;
65370;SDS011;58485;59.934;30.352;2022-08-30T05:01:01;0.50;;;0.50;;
65370;SDS011;58485;59.934;30.352;2022-08-30T05:01:53;0.50;;;0.50;;
65370;SDS011;58485;59.934;30.352;2022-08-30T05:02:44;0.77;;;0.50;;
65370;SDS011;58485;59.934;30.352;2022-08-30T05:03:37;0.68;;;0.50;;
65370;SDS011;58485;59.934;30.352;2022-08-30T05:04:28;0.65;;;0.52;;
65370;SDS011;58485;59.934;30.352;2022-08-30T05:05:20;0.85;;;0.50;;
65370;SDS011;58485;59.934;30.352;2022-08-30T05:06:30;0.73;;;0.55;;
65370;SDS011;58485;59.934;30.352;2022-08-30T05:07:23;0.60;;;0.60;;
65370;SDS011;58485;59.934;30.352;2022-08-30T05:08:15;0.43;;;0.43;;
65370;SDS011;58485;59.934;30.352;2022-08-30T05:09:09;0.52;;;0.50;;
65370;SDS011;58485;59.934;30.352;2022-08-30T05:10:01;0.40;;;0.40;;
65370;SDS011;58485;59.934;30.352;2022-08-30T05:10:54;0.40;;;0.40;;
65370;SDS011;58485;59.934;30.352;2022-08-30T05:11:45;0.52;;;0.52;;